Time;durP1;ratioP1;P1;durP2;ratioP2;P2;SDS_P1;SDS_P2;PMS_P1;PMS_P2;Temp;Humidity;BMP_temperature;BMP_pressure;BME280_temperature;BME280_humidity;BME280_pressure;Samples;Min_cycle;Max_cycle;Signal;HPM_P1;HPM_P2
2023/06/08 00:00:41;;;;;;;2.43;2.10;;;16.10;81.20;;;;;;5112851;27;21241;-68
2023/06/08 00:03:08;;;;;;;2.13;1.93;;;16.00;81.50;;;;;;5117591;27;20756;-68
2023/06/08 00:05:43;;;;;;;2.23;2.13;;;16.00;82.50;;;;;;5118806;27;20669;-68
2023/06/08 00:08:10;;;;;;;3.00;2.10;;;16.00;83.00;;;;;;5119799;27;20736;-68
2023/06/08 00:10:37;;;;;;;2.03;1.80;;;16.00;82.50;;;;;;5108145;27;20770;-68
2023/06/08 00:13:04;;;;;;;2.70;1.90;;;16.10;80.90;;;;;;5116358;27;20628;-68
2023/06/08 00:15:32;;;;;;;3.60;2.13;;;16.30;79.50;;;;;;5117099;27;20686;-68
2023/06/08 00:18:01;;;;;;;2.90;2.70;;;16.20;79.10;;;;;;5102900;27;20633;-68
2023/06/08 00:20:28;;;;;;;2.17;2.03;;;16.20;79.00;;;;;;5107939;27;20708;-68
2023/06/08 00:22:56;;;;;;;2.20;2.00;;;16.20;79.20;;;;;;5114021;27;20648;-68
2023/06/08 00:25:23;;;;;;;2.20;1.80;;;16.10;79.60;;;;;;5114745;27;20736;-68
2023/06/08 00:27:50;;;;;;;3.13;2.53;;;16.10;79.70;;;;;;5118087;27;20981;-68
2023/06/08 00:30:17;;;;;;;2.87;2.03;;;16.20;79.70;;;;;;5107224;27;20659;-68
2023/06/08 00:32:44;;;;;;;2.27;2.07;;;16.10;80.80;;;;;;5112647;27;20636;-68
2023/06/08 00:35:12;;;;;;;2.83;2.20;;;16.00;81.50;;;;;;5118198;27;21101;-68
2023/06/08 00:37:38;;;;;;;2.77;2.07;;;15.80;82.00;;;;;;5102238;27;20726;-68
2023/06/08 00:40:06;;;;;;;2.70;1.93;;;15.90;82.80;;;;;;5101927;27;20991;-68
2023/06/08 00:42:33;;;;;;;2.40;2.20;;;15.90;82.90;;;;;;5118683;27;21179;-68
2023/06/08 00:45:00;;;;;;;2.23;2.13;;;15.80;82.90;;;;;;5111802;27;20625;-67
2023/06/08 00:47:27;;;;;;;3.27;2.47;;;15.80;82.80;;;;;;5117761;27;20650;-67
2023/06/08 00:49:54;;;;;;;2.20;2.07;;;15.80;82.30;;;;;;5118503;27;20675;-68
2023/06/08 00:52:25;;;;;;;2.60;2.40;;;15.90;81.80;;;;;;5103903;27;21284;-68
2023/06/08 00:54:54;;;;;;;2.77;2.03;;;15.90;81.60;;;;;;5110207;27;20618;-68
2023/06/08 00:57:21;;;;;;;2.47;2.00;;;15.80;83.20;;;;;;5117579;27;20661;-68
2023/06/08 00:59:49;;;;;;;3.20;2.90;;;15.70;83.40;;;;;;5107567;27;20633;-68
2023/06/08 01:02:17;;;;;;;3.70;2.17;;;15.50;84.40;;;;;;5111549;27;20757;-68
2023/06/08 01:04:45;;;;;;;2.60;2.40;;;15.40;85.20;;;;;;5107615;27;20621;-68
2023/06/08 01:07:19;;;;;;;2.63;2.43;;;15.30;85.30;;;;;;5116882;27;20650;-68
2023/06/08 01:09:55;;;;;;;2.30;2.03;;;15.40;85.10;;;;;;5115245;27;21248;-68
2023/06/08 01:12:29;;;;;;;2.20;1.67;;;15.50;85.80;;;;;;5121746;28;20660;-68
2023/06/08 01:15:06;;;;;;;1.83;1.70;;;15.50;86.00;;;;;;5108799;28;20631;-68
2023/06/08 01:17:40;;;;;;;2.40;2.30;;;15.50;85.90;;;;;;5116554;28;21374;-68
2023/06/08 01:20:29;;;;;;;2.50;2.30;;;15.50;84.50;;;;;;5105068;28;21265;-67
2023/06/08 01:23:04;;;;;;;2.87;2.20;;;15.50;84.50;;;;;;5117586;27;20638;-68
2023/06/08 01:25:36;;;;;;;2.50;2.30;;;15.50;85.50;;;;;;5114074;27;20655;-68
2023/06/08 01:28:12;;;;;;;2.93;2.13;;;15.40;86.40;;;;;;5115517;28;20658;-68
2023/06/08 01:30:41;;;;;;;2.20;1.60;;;15.30;86.70;;;;;;5113956;28;20669;-68
2023/06/08 01:33:11;;;;;;;1.83;1.73;;;15.30;88.10;;;;;;5117797;28;20629;-68
2023/06/08 01:35:39;;;;;;;1.73;1.63;;;15.30;88.30;;;;;;5112620;28;20649;-68
2023/06/08 01:38:15;;;;;;;3.17;2.87;;;15.40;87.70;;;;;;5112215;27;20632;-68
2023/06/08 01:40:50;;;;;;;2.20;2.00;;;15.50;85.90;;;;;;5108498;28;20664;-68
2023/06/08 01:43:18;;;;;;;2.43;2.23;;;15.50;84.70;;;;;;5114153;28;21200;-67
2023/06/08 01:45:49;;;;;;;2.80;2.60;;;15.50;85.90;;;;;;5111098;28;20649;-68
2023/06/08 01:48:20;;;;;;;2.90;2.37;;;15.40;85.60;;;;;;5118312;28;20621;-68
2023/06/08 01:50:50;;;;;;;3.43;2.77;;;15.40;86.90;;;;;;5111100;28;21582;-68
2023/06/08 01:53:18;;;;;;;2.30;2.10;;;15.40;87.90;;;;;;5107766;27;20640;-68
2023/06/08 01:55:50;;;;;;;3.17;2.87;;;15.20;88.50;;;;;;5120354;28;20653;-68
2023/06/08 01:58:18;;;;;;;2.23;2.03;;;15.10;88.60;;;;;;5118173;27;20662;-68
2023/06/08 02:00:45;;;;;;;2.63;2.40;;;15.20;88.60;;;;;;5109753;28;21338;-67
2023/06/08 02:03:13;;;;;;;2.07;1.87;;;15.20;89.30;;;;;;5119986;27;20631;-68
2023/06/08 02:05:40;;;;;;;2.73;2.20;;;15.20;88.30;;;;;;5107929;28;20653;-68
2023/06/08 02:08:08;;;;;;;2.60;2.40;;;15.20;89.00;;;;;;5103384;28;21392;-68
2023/06/08 02:10:35;;;;;;;3.20;2.70;;;15.10;89.80;;;;;;5120072;27;20757;-68
2023/06/08 02:13:03;;;;;;;4.97;3.03;;;15.00;90.20;;;;;;5113796;28;20665;-68
2023/06/08 02:15:30;;;;;;;2.17;1.97;;;14.90;90.10;;;;;;5119705;27;20752;-68
2023/06/08 02:17:59;;;;;;;2.33;2.13;;;14.80;90.50;;;;;;5115586;27;21125;-67
2023/06/08 02:20:26;;;;;;;2.90;2.67;;;14.90;90.40;;;;;;5106817;27;20649;-68
2023/06/08 02:22:53;;;;;;;3.37;2.60;;;14.90;90.00;;;;;;5117683;27;20619;-68
2023/06/08 02:25:20;;;;;;;2.63;2.43;;;15.00;89.80;;;;;;5120186;27;20624;-68
2023/06/08 02:27:48;;;;;;;2.27;2.13;;;14.90;89.60;;;;;;5121553;27;20616;-68
2023/06/08 02:30:17;;;;;;;2.53;2.20;;;14.90;88.90;;;;;;5115350;27;20783;-68
2023/06/08 02:32:45;;;;;;;2.13;1.93;;;14.80;90.00;;;;;;5106938;27;20634;-68
2023/06/08 02:35:14;;;;;;;2.53;2.30;;;14.80;90.10;;;;;;5106037;27;20637;-68
2023/06/08 02:37:42;;;;;;;2.50;2.30;;;14.80;89.50;;;;;;5108096;27;20975;-68
2023/06/08 02:40:11;;;;;;;2.87;2.33;;;14.80;89.50;;;;;;5115550;27;21241;-68
2023/06/08 02:42:38;;;;;;;2.80;2.60;;;14.70;90.60;;;;;;5115927;27;20631;-68
2023/06/08 02:45:06;;;;;;;2.70;2.20;;;14.50;90.70;;;;;;5115870;27;20700;-68
2023/06/08 02:47:34;;;;;;;3.20;2.50;;;14.40;91.30;;;;;;5111929;27;20649;-68
2023/06/08 02:50:02;;;;;;;2.93;2.63;;;14.30;91.90;;;;;;5112866;27;21023;-68
2023/06/08 02:52:30;;;;;;;3.10;2.80;;;14.20;92.10;;;;;;5105197;27;20640;-67
2023/06/08 02:54:58;;;;;;;2.50;2.20;;;14.20;92.10;;;;;;5120428;27;20655;-67
2023/06/08 02:57:26;;;;;;;2.53;2.33;;;14.20;92.30;;;;;;5121288;27;20779;-67
2023/06/08 02:59:53;;;;;;;2.90;2.60;;;14.20;92.60;;;;;;5115355;27;20621;-67
2023/06/08 03:02:22;;;;;;;2.97;2.60;;;14.30;92.10;;;;;;5118578;27;20660;-67
2023/06/08 03:04:52;;;;;;;2.97;2.40;;;14.40;91.70;;;;;;5118512;27;21020;-67
2023/06/08 03:07:19;;;;;;;2.47;2.27;;;14.50;91.50;;;;;;5117260;27;20660;-67
2023/06/08 03:09:47;;;;;;;4.30;2.87;;;14.50;91.70;;;;;;5113892;27;20660;-67
2023/06/08 03:12:15;;;;;;;4.43;2.63;;;14.50;91.30;;;;;;5118470;27;20739;-67
2023/06/08 03:14:42;;;;;;;2.83;2.37;;;14.50;90.90;;;;;;5113826;27;20677;-69
2023/06/08 03:17:10;;;;;;;2.67;2.47;;;14.60;90.70;;;;;;5121727;27;21041;-67
2023/06/08 03:19:40;;;;;;;2.33;2.13;;;14.50;90.70;;;;;;5119411;27;20993;-67
2023/06/08 03:22:08;;;;;;;3.13;2.93;;;14.40;91.50;;;;;;5117311;27;20763;-67
2023/06/08 03:24:36;;;;;;;3.10;2.80;;;14.30;92.20;;;;;;5115784;27;20878;-67
2023/06/08 03:27:05;;;;;;;2.23;2.07;;;14.20;92.90;;;;;;5119262;27;21232;-67
2023/06/08 03:29:32;;;;;;;3.40;2.80;;;14.10;93.20;;;;;;5118383;27;20624;-67
2023/06/08 03:31:59;;;;;;;3.57;3.23;;;14.20;92.80;;;;;;5117587;27;20671;-67
2023/06/08 03:34:26;;;;;;;3.20;2.90;;;14.30;91.70;;;;;;5116317;27;20683;-67
2023/06/08 03:36:54;;;;;;;2.90;2.60;;;14.30;91.30;;;;;;5108397;27;21017;-67
2023/06/08 03:39:22;;;;;;;2.60;2.40;;;14.20;91.50;;;;;;5101228;27;20709;-67
2023/06/08 03:41:49;;;;;;;3.30;3.00;;;14.10;92.10;;;;;;5111995;27;20751;-67
2023/06/08 03:44:16;;;;;;;2.30;2.20;;;14.20;91.80;;;;;;5117211;27;20622;-67
2023/06/08 03:46:42;;;;;;;3.40;2.70;;;14.20;91.90;;;;;;5120366;27;20722;-67
2023/06/08 03:49:09;;;;;;;2.23;2.03;;;14.20;92.00;;;;;;5109595;27;20626;-67
2023/06/08 03:51:37;;;;;;;4.20;2.80;;;14.20;92.10;;;;;;5113464;27;21039;-67
2023/06/08 03:54:04;;;;;;;4.30;2.27;;;14.40;92.40;;;;;;5111025;27;20752;-67
2023/06/08 03:56:32;;;;;;;3.30;2.60;;;14.20;93.00;;;;;;5117835;27;20641;-67
2023/06/08 03:59:00;;;;;;;2.53;2.03;;;14.30;93.10;;;;;;5112210;27;20631;-67
2023/06/08 04:01:30;;;;;;;4.17;2.80;;;14.30;93.30;;;;;;5118237;27;21023;-67
2023/06/08 04:03:57;;;;;;;3.83;2.67;;;14.40;93.40;;;;;;5117870;27;20656;-67
2023/06/08 04:06:28;;;;;;;2.70;2.50;;;14.40;93.20;;;;;;5119456;27;20684;-67
2023/06/08 04:08:55;;;;;;;3.03;2.83;;;14.40;92.40;;;;;;5116389;27;21193;-68
2023/06/08 04:11:22;;;;;;;2.47;2.27;;;14.50;92.50;;;;;;5108157;27;20676;-67
2023/06/08 04:13:51;;;;;;;2.77;2.57;;;14.50;92.30;;;;;;5106865;27;20634;-67
2023/06/08 04:16:18;;;;;;;2.70;2.50;;;14.60;93.30;;;;;;5105589;27;20737;-67
2023/06/08 04:18:45;;;;;;;3.27;2.80;;;14.60;93.50;;;;;;5124623;27;20621;-67
2023/06/08 04:21:12;;;;;;;3.00;2.70;;;14.50;93.30;;;;;;5121540;27;20646;-67
2023/06/08 04:23:38;;;;;;;3.90;3.30;;;14.50;93.20;;;;;;5112448;27;20626;-67
2023/06/08 04:26:07;;;;;;;3.87;2.87;;;14.30;93.30;;;;;;5114786;27;20652;-67
2023/06/08 04:28:34;;;;;;;3.33;2.13;;;14.30;93.40;;;;;;5104582;27;20632;-67
2023/06/08 04:31:04;;;;;;;1.90;1.80;;;14.30;94.10;;;;;;5103951;27;20706;-67
2023/06/08 04:33:31;;;;;;;3.47;3.20;;;14.20;94.20;;;;;;5126510;27;20620;-67
2023/06/08 04:35:58;;;;;;;2.43;2.23;;;14.30;94.90;;;;;;5110586;27;20714;-67
2023/06/08 04:38:25;;;;;;;3.33;2.60;;;14.30;94.90;;;;;;5112306;27;21074;-67
2023/06/08 04:40:53;;;;;;;4.40;2.80;;;14.30;95.20;;;;;;5106174;27;20652;-67
2023/06/08 04:43:21;;;;;;;3.40;3.10;;;14.60;94.70;;;;;;5113739;27;21020;-67
2023/06/08 04:45:51;;;;;;;4.60;2.77;;;14.90;93.60;;;;;;5113292;27;20644;-67
2023/06/08 04:48:19;;;;;;;3.60;3.30;;;15.10;92.60;;;;;;5123426;27;20624;-67
2023/06/08 04:50:46;;;;;;;3.23;2.60;;;15.20;92.80;;;;;;5107378;27;20836;-67
2023/06/08 04:53:14;;;;;;;2.73;2.03;;;15.20;93.40;;;;;;5117663;27;20963;-67
2023/06/08 04:55:45;;;;;;;3.63;2.63;;;15.10;93.90;;;;;;5109594;27;20711;-67
2023/06/08 04:58:12;;;;;;;3.13;2.80;;;15.10;93.90;;;;;;5117394;27;20629;-67
2023/06/08 05:00:39;;;;;;;3.23;2.90;;;15.10;94.30;;;;;;5107606;27;20649;-67
2023/06/08 05:03:06;;;;;;;4.70;3.17;;;15.30;94.50;;;;;;5109759;27;20629;-67
2023/06/08 05:05:34;;;;;;;3.67;3.37;;;15.30;93.70;;;;;;5115976;27;21228;-67
2023/06/08 05:08:01;;;;;;;2.50;2.30;;;15.40;93.30;;;;;;5112902;27;20630;-67
2023/06/08 05:10:28;;;;;;;3.00;2.50;;;15.50;94.30;;;;;;5114341;27;20650;-67
2023/06/08 05:12:56;;;;;;;2.83;2.57;;;15.60;94.10;;;;;;5109703;27;20636;-67
2023/06/08 05:15:23;;;;;;;4.20;2.53;;;15.70;93.80;;;;;;5108011;27;20658;-67
2023/06/08 05:17:51;;;;;;;2.90;2.70;;;15.90;93.40;;;;;;5121281;27;20615;-67
2023/06/08 05:20:19;;;;;;;2.50;2.30;;;16.00;93.00;;;;;;5100501;28;20627;-67
2023/06/08 05:22:47;;;;;;;2.77;2.57;;;16.10;93.00;;;;;;5106173;27;20626;-68
2023/06/08 05:25:14;;;;;;;3.10;2.90;;;16.30;93.10;;;;;;5117179;28;20698;-67
2023/06/08 05:27:41;;;;;;;2.90;2.33;;;16.40;93.70;;;;;;5114987;28;20695;-67
2023/06/08 05:30:08;;;;;;;2.70;2.37;;;16.50;93.30;;;;;;5123924;28;20628;-67
2023/06/08 05:32:35;;;;;;;2.80;2.60;;;16.60;92.80;;;;;;5118122;28;20670;-67
2023/06/08 05:35:02;;;;;;;3.83;2.30;;;16.70;92.10;;;;;;5109760;28;20626;-67
2023/06/08 05:37:29;;;;;;;2.80;2.17;;;16.80;92.10;;;;;;5101904;27;20644;-67
2023/06/08 05:39:58;;;;;;;2.97;2.70;;;17.00;90.50;;;;;;5106545;28;20632;-67
2023/06/08 05:42:24;;;;;;;2.30;2.13;;;17.10;90.40;;;;;;5102453;28;20658;-67
2023/06/08 05:44:51;;;;;;;3.70;2.67;;;17.20;89.60;;;;;;5101673;28;20968;-67
2023/06/08 05:47:18;;;;;;;2.47;2.20;;;17.40;89.30;;;;;;5104307;28;21233;-67
2023/06/08 05:49:45;;;;;;;3.40;3.10;;;17.50;89.80;;;;;;5097146;28;21009;-67
2023/06/08 05:52:11;;;;;;;2.40;2.20;;;17.60;89.50;;;;;;5100163;28;21298;-67
2023/06/08 05:54:38;;;;;;;3.37;3.17;;;17.70;90.20;;;;;;5111293;27;20624;-67
2023/06/08 05:57:06;;;;;;;2.70;2.50;;;17.90;88.90;;;;;;5109020;27;21006;-67
2023/06/08 05:59:33;;;;;;;2.50;2.30;;;18.00;88.20;;;;;;5106168;27;20616;-68
2023/06/08 06:02:00;;;;;;;3.00;2.50;;;18.30;86.90;;;;;;5109363;27;21195;-68
2023/06/08 06:04:27;;;;;;;2.50;2.27;;;18.40;87.90;;;;;;5112704;27;20632;-68
2023/06/08 06:06:53;;;;;;;2.47;2.27;;;18.50;88.20;;;;;;5110958;27;20758;-68
2023/06/08 06:09:20;;;;;;;3.20;2.90;;;18.50;87.80;;;;;;5106139;27;20635;-68
2023/06/08 06:11:48;;;;;;;2.60;2.23;;;18.70;87.40;;;;;;5116938;27;20668;-68
2023/06/08 06:14:17;;;;;;;2.40;2.20;;;18.80;87.00;;;;;;5108609;27;20647;-67
2023/06/08 06:16:43;;;;;;;2.37;2.17;;;19.00;87.20;;;;;;5116313;27;20655;-68
2023/06/08 06:19:11;;;;;;;2.60;2.10;;;19.10;85.10;;;;;;5115740;27;20625;-68
2023/06/08 06:21:37;;;;;;;2.63;2.53;;;19.30;84.40;;;;;;5112580;27;20734;-68
2023/06/08 06:24:05;;;;;;;3.73;3.17;;;19.50;83.10;;;;;;5125614;27;20620;-68
2023/06/08 06:26:32;;;;;;;2.67;2.00;;;19.60;83.20;;;;;;5123818;27;20711;-68
2023/06/08 06:28:58;;;;;;;3.00;2.80;;;19.70;83.20;;;;;;5119444;27;20630;-68
2023/06/08 06:31:27;;;;;;;2.60;2.00;;;19.90;81.80;;;;;;5120746;27;21151;-68
2023/06/08 06:33:53;;;;;;;2.97;2.43;;;20.00;80.80;;;;;;5119490;27;20635;-68
2023/06/08 06:36:20;;;;;;;2.33;2.13;;;20.10;80.90;;;;;;5113206;27;20651;-68
2023/06/08 06:38:47;;;;;;;1.87;1.77;;;20.10;81.50;;;;;;5116496;27;20997;-68
2023/06/08 06:41:14;;;;;;;2.83;2.63;;;20.40;80.70;;;;;;5117551;27;20658;-68
2023/06/08 06:43:41;;;;;;;2.00;1.90;;;20.30;80.10;;;;;;5112461;27;20644;-68
2023/06/08 06:46:08;;;;;;;2.90;2.70;;;20.40;79.30;;;;;;5110918;27;20663;-68
2023/06/08 06:48:36;;;;;;;3.20;2.90;;;20.50;80.10;;;;;;5114623;27;20656;-68
2023/06/08 06:51:03;;;;;;;3.23;3.00;;;20.50;80.00;;;;;;5114633;27;21230;-71
2023/06/08 06:53:30;;;;;;;3.13;2.80;;;20.60;80.60;;;;;;5109465;27;20631;-67
2023/06/08 06:55:56;;;;;;;3.33;2.50;;;20.70;81.80;;;;;;5103961;27;20706;-67
2023/06/08 06:58:24;;;;;;;3.23;2.80;;;20.80;81.20;;;;;;5105131;27;20631;-67
2023/06/08 07:00:51;;;;;;;4.13;3.07;;;21.00;81.60;;;;;;5116842;27;20984;-67
2023/06/08 07:03:18;;;;;;;3.40;3.10;;;21.00;80.90;;;;;;5117481;27;20627;-67
2023/06/08 07:05:46;;;;;;;2.57;2.37;;;21.10;80.50;;;;;;5119269;27;20662;-67
2023/06/08 07:08:13;;;;;;;4.13;3.10;;;21.20;80.60;;;;;;5122266;27;20615;-67
2023/06/08 07:10:40;;;;;;;4.70;3.37;;;21.20;80.90;;;;;;5106389;27;20763;-67
2023/06/08 07:13:07;;;;;;;3.17;2.87;;;21.30;80.80;;;;;;5116143;27;20655;-68
2023/06/08 07:15:33;;;;;;;3.30;2.73;;;21.40;80.30;;;;;;5104400;27;20661;-67
2023/06/08 07:18:00;;;;;;;2.80;2.60;;;21.50;79.30;;;;;;5114711;27;20747;-67
2023/06/08 07:20:27;;;;;;;3.07;2.87;;;21.60;79.80;;;;;;5110757;27;20748;-67
2023/06/08 07:22:55;;;;;;;4.07;3.37;;;21.70;77.60;;;;;;5117393;27;20627;-67
2023/06/08 07:25:22;;;;;;;3.40;3.10;;;21.70;76.80;;;;;;5120893;27;20624;-68
2023/06/08 07:27:48;;;;;;;2.80;2.60;;;21.80;76.90;;;;;;5115771;27;20628;-67
2023/06/08 07:30:15;;;;;;;3.10;2.90;;;22.00;77.20;;;;;;5110470;27;20627;-67
2023/06/08 07:32:43;;;;;;;2.73;2.53;;;22.00;75.00;;;;;;5120722;27;20662;-67
2023/06/08 07:35:10;;;;;;;3.70;3.00;;;22.00;74.70;;;;;;5112293;27;20616;-67
2023/06/08 07:37:37;;;;;;;3.30;2.93;;;22.20;73.80;;;;;;5112985;27;21484;-67
2023/06/08 07:40:07;;;;;;;3.13;2.93;;;22.30;74.20;;;;;;5118166;27;21195;-67
2023/06/08 07:42:34;;;;;;;3.60;3.30;;;22.30;75.00;;;;;;5107230;27;20621;-67
2023/06/08 07:45:01;;;;;;;3.30;3.00;;;22.10;75.30;;;;;;5106648;27;20655;-68
2023/06/08 07:47:28;;;;;;;2.57;2.37;;;21.80;75.50;;;;;;5117797;27;20723;-69
2023/06/08 07:49:55;;;;;;;3.73;3.43;;;21.70;74.80;;;;;;5107707;28;20696;-69
2023/06/08 07:52:22;;;;;;;3.53;3.23;;;21.60;74.40;;;;;;5115316;27;20699;-69
2023/06/08 07:54:49;;;;;;;3.40;3.10;;;22.00;75.80;;;;;;5115770;27;20616;-69
2023/06/08 07:57:18;;;;;;;3.27;3.07;;;22.20;74.80;;;;;;5118278;27;20670;-69
2023/06/08 07:59:45;;;;;;;3.90;3.47;;;22.30;73.60;;;;;;5120006;27;21070;-69
2023/06/08 08:02:12;;;;;;;3.20;2.93;;;22.20;72.60;;;;;;5120416;27;20651;-69
2023/06/08 08:04:38;;;;;;;3.43;3.13;;;22.10;73.10;;;;;;5115663;27;20619;-69
2023/06/08 08:07:06;;;;;;;3.80;3.37;;;22.30;73.90;;;;;;5116939;27;20659;-69
2023/06/08 08:09:33;;;;;;;4.50;3.40;;;22.20;72.50;;;;;;5118859;27;20703;-69
2023/06/08 08:11:59;;;;;;;3.13;2.83;;;21.90;72.70;;;;;;5120394;27;21234;-69
2023/06/08 08:14:27;;;;;;;3.70;3.40;;;22.10;73.80;;;;;;5120188;27;20631;-69
2023/06/08 08:16:54;;;;;;;3.57;2.97;;;22.00;73.40;;;;;;5116284;27;20644;-69
2023/06/08 08:19:21;;;;;;;3.90;3.60;;;22.10;72.90;;;;;;5116630;27;20651;-69
2023/06/08 08:21:48;;;;;;;3.93;3.63;;;22.10;73.70;;;;;;5118870;27;20658;-69
2023/06/08 08:24:15;;;;;;;3.50;3.20;;;22.10;73.10;;;;;;5121161;27;20626;-69
2023/06/08 08:26:42;;;;;;;3.20;2.90;;;22.00;73.30;;;;;;5119698;27;20655;-69
2023/06/08 08:29:08;;;;;;;3.50;3.30;;;21.80;71.40;;;;;;5116705;27;20693;-69
2023/06/08 08:31:37;;;;;;;3.40;3.10;;;21.70;72.50;;;;;;5116568;27;20687;-69
2023/06/08 08:34:04;;;;;;;2.80;2.60;;;21.60;71.80;;;;;;5119495;27;20701;-69
2023/06/08 08:36:30;;;;;;;3.00;2.60;;;21.70;73.50;;;;;;5109811;27;20652;-69
2023/06/08 08:38:57;;;;;;;3.53;3.23;;;22.00;71.50;;;;;;5117429;27;20971;-69
2023/06/08 08:41:27;;;;;;;3.20;2.87;;;22.40;71.50;;;;;;5114136;27;20654;-69
2023/06/08 08:43:57;;;;;;;3.80;3.50;;;22.60;72.00;;;;;;5113633;27;20963;-69
2023/06/08 08:46:25;;;;;;;3.40;3.10;;;22.70;71.80;;;;;;5108870;27;20640;-69
2023/06/08 08:48:58;;;;;;;4.90;3.90;;;23.00;70.80;;;;;;5115499;27;21024;-69
2023/06/08 08:51:25;;;;;;;3.60;3.30;;;23.40;69.70;;;;;;5105341;27;20655;-69
2023/06/08 08:53:55;;;;;;;4.67;4.17;;;23.50;69.30;;;;;;5107599;27;20696;-69
2023/06/08 08:56:25;;;;;;;3.73;3.43;;;23.70;68.60;;;;;;5102314;27;20659;-69
2023/06/08 08:58:53;;;;;;;3.87;3.30;;;23.70;68.60;;;;;;5099697;28;21157;-69
2023/06/08 09:01:20;;;;;;;3.70;3.40;;;23.70;67.60;;;;;;5101824;27;20665;-68
2023/06/08 09:03:49;;;;;;;6.67;3.80;;;23.70;66.30;;;;;;5105578;27;20624;-69
2023/06/08 09:06:20;;;;;;;3.57;3.27;;;23.40;65.30;;;;;;5102496;27;20658;-68
2023/06/08 09:08:48;;;;;;;4.70;3.57;;;23.50;66.70;;;;;;5098083;27;20729;-69
2023/06/08 09:11:16;;;;;;;5.80;4.40;;;23.30;66.50;;;;;;5099603;27;21103;-68
2023/06/08 09:13:44;;;;;;;4.97;3.90;;;23.50;66.40;;;;;;5103086;27;20667;-68
2023/06/08 09:16:14;;;;;;;3.17;2.97;;;23.50;66.50;;;;;;5098657;28;21205;-69
2023/06/08 09:18:42;;;;;;;3.57;3.23;;;23.80;66.60;;;;;;5103473;28;20620;-68
2023/06/08 09:21:23;;;;;;;3.00;2.80;;;24.00;65.50;;;;;;5106217;28;21219;-69
2023/06/08 09:24:07;;;;;;;4.30;3.90;;;23.90;65.00;;;;;;5107490;28;20971;-68
2023/06/08 09:26:36;;;;;;;4.03;3.67;;;24.00;64.20;;;;;;5101105;28;21239;-69
2023/06/08 09:29:05;;;;;;;5.47;4.07;;;24.00;63.30;;;;;;5103997;27;20631;-68
2023/06/08 09:31:33;;;;;;;3.90;3.60;;;24.20;63.40;;;;;;5104289;27;21200;-69
2023/06/08 09:34:10;;;;;;;3.93;3.63;;;24.60;63.80;;;;;;5107437;27;20672;-69
2023/06/08 09:36:38;;;;;;;4.17;3.80;;;24.80;61.00;;;;;;5099794;27;20665;-68
2023/06/08 09:39:07;;;;;;;3.40;3.10;;;25.00;62.00;;;;;;5106262;27;20624;-69
2023/06/08 09:41:34;;;;;;;3.40;3.10;;;24.90;60.30;;;;;;5105114;27;21018;-68
2023/06/08 09:44:01;;;;;;;5.10;4.63;;;24.60;60.30;;;;;;5109975;27;20617;-69
2023/06/08 09:46:38;;;;;;;3.70;3.40;;;24.50;58.40;;;;;;5116749;27;21212;-69
2023/06/08 09:49:07;;;;;;;3.83;3.50;;;24.70;60.90;;;;;;5119836;27;20727;-69
2023/06/08 09:51:35;;;;;;;3.40;3.07;;;25.00;59.90;;;;;;5119650;27;20646;-69
2023/06/08 09:54:05;;;;;;;3.70;3.40;;;25.30;59.10;;;;;;5120078;27;21243;-69
2023/06/08 09:56:34;;;;;;;3.43;3.13;;;25.50;58.20;;;;;;5111872;27;20663;-69
2023/06/08 09:59:06;;;;;;;4.57;3.67;;;25.60;57.70;;;;;;5119549;27;20628;-69
2023/06/08 10:01:38;;;;;;;3.37;3.07;;;25.50;56.40;;;;;;5122596;27;20680;-69
2023/06/08 10:04:17;;;;;;;3.43;3.13;;;25.50;57.40;;;;;;5121677;27;20621;-69
2023/06/08 10:06:47;;;;;;;3.90;3.60;;;25.80;56.70;;;;;;5111713;27;20746;-69
2023/06/08 10:09:19;;;;;;;3.80;3.47;;;25.80;56.30;;;;;;5126507;27;20647;-69
2023/06/08 10:11:47;;;;;;;3.60;3.30;;;25.80;55.50;;;;;;5109958;27;20649;-69
2023/06/08 10:14:14;;;;;;;3.57;3.27;;;25.20;55.90;;;;;;5118279;27;20736;-69
2023/06/08 10:16:42;;;;;;;3.20;3.00;;;25.50;58.00;;;;;;5121365;27;20648;-69
2023/06/08 10:19:11;;;;;;;3.43;3.13;;;25.80;56.90;;;;;;5121753;27;21012;-69
2023/06/08 10:21:38;;;;;;;3.07;2.83;;;25.90;55.70;;;;;;5110558;27;20684;-69
2023/06/08 10:24:06;;;;;;;3.73;3.10;;;26.20;55.20;;;;;;5115158;27;21042;-69
2023/06/08 10:26:35;;;;;;;4.13;3.83;;;26.00;53.90;;;;;;5122102;27;20683;-69
2023/06/08 10:29:08;;;;;;;3.27;3.07;;;26.10;53.20;;;;;;5110390;27;21764;-69
2023/06/08 10:31:37;;;;;;;3.73;3.43;;;26.20;53.90;;;;;;5118362;27;20776;-69
2023/06/08 10:34:09;;;;;;;3.23;3.03;;;26.40;53.50;;;;;;5122105;27;20696;-69
2023/06/08 10:36:39;;;;;;;3.57;3.37;;;26.70;52.70;;;;;;5115981;27;20648;-69
2023/06/08 10:39:10;;;;;;;3.00;2.80;;;26.80;51.40;;;;;;5119640;27;21279;-69
2023/06/08 10:41:46;;;;;;;3.50;3.13;;;26.90;51.70;;;;;;5112270;27;20639;-69
2023/06/08 10:44:29;;;;;;;3.17;2.97;;;26.40;53.10;;;;;;5121649;27;20608;-69
2023/06/08 10:46:59;;;;;;;3.23;3.03;;;26.80;53.90;;;;;;5122213;27;20655;-69
2023/06/08 10:49:30;;;;;;;4.30;3.50;;;27.20;53.80;;;;;;5111441;27;20625;-69
2023/06/08 10:51:58;;;;;;;3.80;3.03;;;27.40;51.20;;;;;;5118187;27;20681;-69
2023/06/08 10:54:25;;;;;;;4.33;3.93;;;27.50;51.50;;;;;;5122076;27;20756;-69
2023/06/08 10:56:56;;;;;;;2.80;2.40;;;27.70;48.90;;;;;;5122041;27;21077;-69
2023/06/08 10:59:32;;;;;;;3.70;3.40;;;27.60;49.00;;;;;;5114582;27;20957;-69
2023/06/08 11:02:01;;;;;;;4.13;3.83;;;27.30;48.60;;;;;;5121557;27;20646;-69
2023/06/08 11:04:29;;;;;;;4.63;4.23;;;27.40;50.00;;;;;;5118170;27;20713;-69
2023/06/08 11:07:00;;;;;;;4.23;3.93;;;27.70;50.80;;;;;;5118349;27;21219;-69
2023/06/08 11:09:30;;;;;;;3.90;3.60;;;27.70;50.70;;;;;;5119585;27;20634;-69
2023/06/08 11:11:58;;;;;;;3.87;3.57;;;28.10;48.80;;;;;;5121549;27;20653;-69
2023/06/08 11:14:25;;;;;;;4.40;3.77;;;28.40;46.60;;;;;;5121710;27;21003;-69
2023/06/08 11:16:52;;;;;;;3.40;3.10;;;28.70;47.50;;;;;;5118148;27;20650;-69
2023/06/08 11:19:20;;;;;;;3.93;3.63;;;28.80;47.90;;;;;;5117610;27;21002;-70
2023/06/08 11:21:50;;;;;;;3.83;3.53;;;29.10;47.00;;;;;;5116902;27;20646;-69
2023/06/08 11:24:17;;;;;;;4.43;4.03;;;29.10;47.80;;;;;;5121589;27;20683;-69
2023/06/08 11:26:45;;;;;;;3.70;3.40;;;28.90;47.40;;;;;;5119681;27;20996;-69
2023/06/08 11:29:14;;;;;;;3.67;3.37;;;29.30;46.60;;;;;;5116753;27;20795;-70
2023/06/08 11:31:41;;;;;;;3.20;2.90;;;29.50;46.20;;;;;;5117546;27;20678;-70
2023/06/08 11:34:11;;;;;;;3.53;3.30;;;29.70;46.30;;;;;;5121629;27;20666;-70
2023/06/08 11:36:39;;;;;;;4.00;3.70;;;30.10;45.20;;;;;;5120334;27;20703;-69
2023/06/08 11:39:06;;;;;;;3.87;3.40;;;30.00;44.40;;;;;;5120065;27;20612;-70
2023/06/08 11:41:33;;;;;;;3.90;3.43;;;29.70;42.70;;;;;;5111632;27;20664;-70
2023/06/08 11:44:00;;;;;;;3.50;3.20;;;29.10;42.80;;;;;;5116524;27;20616;-70
2023/06/08 11:46:29;;;;;;;3.50;3.30;;;28.50;44.50;;;;;;5120663;27;20773;-70
2023/06/08 11:49:07;;;;;;;3.93;3.50;;;28.20;45.20;;;;;;5112845;27;21167;-70
2023/06/08 11:51:34;;;;;;;4.57;4.17;;;27.90;45.70;;;;;;5109331;27;21260;-69
2023/06/08 11:54:03;;;;;;;4.70;4.33;;;27.60;47.10;;;;;;5117620;27;20755;-69
2023/06/08 11:56:35;;;;;;;3.00;2.80;;;27.30;47.90;;;;;;5119736;27;20653;-69
2023/06/08 11:59:03;;;;;;;5.00;4.60;;;27.10;48.00;;;;;;5114494;27;21002;-69
2023/06/08 12:01:32;;;;;;;3.80;3.50;;;27.00;48.10;;;;;;5120174;27;20649;-69
2023/06/08 12:03:59;;;;;;;4.43;4.03;;;26.90;48.00;;;;;;5119444;27;20630;-70
2023/06/08 12:06:27;;;;;;;4.30;4.00;;;26.90;47.80;;;;;;5118674;27;20739;-69
2023/06/08 12:08:54;;;;;;;4.13;3.83;;;26.50;47.10;;;;;;5115923;27;20611;-69
2023/06/08 12:11:22;;;;;;;4.80;4.40;;;27.00;48.20;;;;;;5117123;27;20662;-69
2023/06/08 12:13:49;;;;;;;4.30;4.00;;;28.80;48.50;;;;;;5120724;27;20791;-70
2023/06/08 12:16:16;;;;;;;4.60;4.20;;;30.80;44.30;;;;;;5120562;27;20692;-70
2023/06/08 12:18:45;;;;;;;3.97;3.67;;;31.70;43.20;;;;;;5117771;27;20727;-70
2023/06/08 12:21:15;;;;;;;4.77;4.37;;;32.00;42.50;;;;;;5115316;27;20648;-70
2023/06/08 12:23:42;;;;;;;4.73;3.80;;;31.50;43.00;;;;;;5116700;27;20681;-70
2023/06/08 12:26:09;;;;;;;3.07;2.87;;;31.00;43.70;;;;;;5120514;27;21004;-70
2023/06/08 12:28:37;;;;;;;2.67;2.47;;;30.90;44.20;;;;;;5120105;27;20726;-70
2023/06/08 12:31:03;;;;;;;3.80;3.50;;;30.70;43.80;;;;;;5107590;27;20660;-70
2023/06/08 12:33:31;;;;;;;3.13;2.93;;;29.80;44.90;;;;;;5117237;27;20672;-69
2023/06/08 12:35:59;;;;;;;3.00;2.80;;;29.10;46.00;;;;;;5117640;27;20739;-69
2023/06/08 12:38:26;;;;;;;2.80;2.60;;;29.20;45.40;;;;;;5121475;27;20627;-70
2023/06/08 12:40:53;;;;;;;2.90;2.70;;;28.80;45.10;;;;;;5116509;27;20701;-70
2023/06/08 12:43:21;;;;;;;3.90;2.47;;;29.40;47.00;;;;;;5118436;27;20616;-70
2023/06/08 12:45:49;;;;;;;3.13;2.93;;;30.70;45.70;;;;;;5116414;27;20656;-70
2023/06/08 12:48:16;;;;;;;3.30;3.00;;;31.90;42.70;;;;;;5116925;27;20744;-70
2023/06/08 12:50:43;;;;;;;2.10;2.00;;;31.60;41.00;;;;;;5113845;27;20647;-70
2023/06/08 12:53:11;;;;;;;3.07;2.53;;;30.10;42.00;;;;;;5118323;27;20644;-70